Cape Sakura — 7JHZ — position and weather

sailwx.info

Track history (hours):
 
Tides and Currents Weather Stations Pressure Air Temp Water Temp Dewpoint Dewpoint Depression Visibility Wind Speed Wind Dir Waves Ship Positions

Cape Sakura

Last reported at 2014-Jun-29 05:33 UTC. Time now 2014-Jul-26 13:16 UTC.
Position S 32°24' E 152°47'.
Warning: this ship's position is 27 days out of date.

Length 292 m; draft 15.1 m.

Type: Cargo ship. MMSI: 432786000.

Date/timePositionNaut miles runAvg speedWind from/ knotsBaromVisibWave heightAir tempDewpointWater temp
2014-Jun-29 05:33S 32°24' E 152°47'1212.4
2014-Jun-29 04:33S 32°34' E 152°39'1212.3
2014-Jun-29 03:33S 32°42' E 152°27'1211.7
2014-Jun-29 02:33S 32°49' E 152°16'1211.8
2014-Jun-29 01:33S 32°54' E 152°03'1111.3
2014-Jun-29 00:33S 32°56' E 151°50'4 4.1
2014-Jun-28 23:33S 32°54' E 151°46'1 1.3
2014-Jun-28 22:33S 32°53' E 151°45'0 0.0
2014-Jun-28 21:30S 32°53' E 151°45'0 0.0
2014-Jun-28 20:33S 32°53' E 151°45'0 0.0
2014-Jun-28 19:30S 32°53' E 151°45'0 0.0
2014-Jun-28 18:30S 32°53' E 151°45'0 0.0
2014-Jun-28 17:33S 32°53' E 151°45'0 0.0
2014-Jun-28 16:33S 32°53' E 151°45'0 0.0
2014-Jun-28 15:33S 32°53' E 151°45'0 0.0
2014-Jun-28 14:33S 32°53' E 151°45'0 0.0
2014-Jun-28 13:33S 32°53' E 151°45'0 0.0
2014-Jun-28 12:33S 32°53' E 151°45'0 0.0
2014-Jun-28 11:33S 32°53' E 151°45'0 0.0
2014-Jun-28 10:30S 32°53' E 151°45'0 0.0
2014-Jun-28 09:30S 32°53' E 151°45'0 0.0
2014-Jun-28 08:27S 32°53' E 151°45'0 0.0
2014-Jun-28 07:33S 32°53' E 151°45'0 0.0
2014-Jun-28 06:33S 32°53' E 151°45'0 0.0
2014-Jun-28 05:33S 32°53' E 151°45'0 0.0
2014-Jun-28 04:30S 32°53' E 151°45'0 0.0
2014-Jun-28 03:33S 32°53' E 151°45'0 0.0
2014-Jun-28 02:33S 32°53' E 151°45'0 0.0
2014-Jun-28 01:33S 32°53' E 151°45'0 0.0
2014-Jun-28 00:33S 32°53' E 151°45'0 0.0
2014-Jun-27 23:30S 32°53' E 151°45'0 0.0
2014-Jun-27 22:33S 32°53' E 151°45'0 0.0
2014-Jun-27 21:33S 32°53' E 151°45'0 0.0
2014-Jun-27 20:33S 32°53' E 151°45'0 0.0
2014-Jun-27 19:33S 32°53' E 151°45'0 0.0
2014-Jun-27 18:30S 32°53' E 151°45'0 0.0
2014-Jun-27 17:33S 32°53' E 151°45'0 0.0
2014-Jun-27 16:33S 32°53' E 151°45'0 0.0
2014-Jun-27 15:33S 32°53' E 151°45'0 0.0
2014-Jun-27 14:30S 32°53' E 151°45'0 0.0
2014-Jun-27 13:30S 32°53' E 151°45'0 0.0
2014-Jun-27 12:33S 32°53' E 151°45'0 0.0
2014-Jun-27 11:30S 32°53' E 151°45'0 0.0
2014-Jun-27 10:33S 32°53' E 151°45'0 0.0
2014-Jun-27 09:33S 32°53' E 151°45'0 0.0
2014-Jun-27 08:33S 32°53' E 151°45'0 0.0
2014-Jun-27 07:30S 32°53' E 151°45'0 0.0
2014-Jun-27 06:33S 32°53' E 151°45'0 0.0
2014-Jun-27 05:33S 32°53' E 151°45'0 0.0
2014-Jun-27 04:30S 32°53' E 151°45'0 0.0
2014-Jun-27 03:30S 32°53' E 151°45'0 0.0
2014-Jun-27 02:30S 32°53' E 151°45'0 0.0
2014-Jun-27 01:33S 32°53' E 151°45'0 0.0
2014-Jun-27 00:33S 32°53' E 151°45'0 0.0
2014-Jun-26 23:30S 32°53' E 151°45'0 0.0
2014-Jun-26 22:33S 32°53' E 151°45'1 1.3
2014-Jun-26 21:34S 32°54' E 151°46'5 5.3
2014-Jun-26 20:34S 32°57' E 151°51'8 8.3
2014-Jun-26 19:33S 33°03' E 151°58'9 9.0
2014-Jun-26 18:33S 33°08' E 152°07'1110.6
2014-Jun-26 17:33S 33°14' E 152°17'1010.2
2014-Jun-26 16:33S 33°21' E 152°27'12 0.9
2014-Jun-26 03:28S 33°16' E 152°13'1 0.6
2014-Jun-26 02:11S 33°15' E 152°13'6 9.4
2014-Jun-26 01:34S 33°15' E 152°20'1212.3
2014-Jun-26 00:34S 33°15' E 152°35'  
2014-Jun-23 03:09S 27°57' E 154°04'1415.0
2014-Jun-23 02:14S 27°43' E 154°04'1314.7
2014-Jun-23 01:22S 27°30' E 154°04'1414.1
2014-Jun-23 00:23S 27°16' E 154°04'1914.3
2014-Jun-22 23:05S 26°58' E 154°05'2214.2
2014-Jun-22 21:31S 26°36' E 154°04'1514.4
2014-Jun-22 20:29S 26°21' E 154°03'  
Track history (hours):
 
Tides and Currents Weather Stations Pressure Air Temp Water Temp Dewpoint Dewpoint Depression Visibility Wind Speed Wind Dir Waves Ship Positions

Cape Sakura

Last reported at 2014-Jun-29 05:33 UTC. Time now 2014-Jul-26 13:16 UTC.
Position S 32°24' E 152°47'.
Warning: this ship's position is 27 days out of date.

Length 292 m; draft 15.1 m.

Type: Cargo ship. MMSI: 432786000.

Date/timePositionNaut miles runAvg speedWind from/ knotsBaromVisibWave heightAir tempDewpointWater temp
2014-Jun-29 05:33S 32°24' E 152°47'1212.4
2014-Jun-29 04:33S 32°34' E 152°39'1212.3
2014-Jun-29 03:33S 32°42' E 152°27'1211.7
2014-Jun-29 02:33S 32°49' E 152°16'1211.8
2014-Jun-29 01:33S 32°54' E 152°03'1111.3
2014-Jun-29 00:33S 32°56' E 151°50'4 4.1
2014-Jun-28 23:33S 32°54' E 151°46'1 1.3
2014-Jun-28 22:33S 32°53' E 151°45'0 0.0
2014-Jun-28 21:30S 32°53' E 151°45'0 0.0
2014-Jun-28 20:33S 32°53' E 151°45'0 0.0
2014-Jun-28 19:30S 32°53' E 151°45'0 0.0
2014-Jun-28 18:30S 32°53' E 151°45'0 0.0
2014-Jun-28 17:33S 32°53' E 151°45'0 0.0
2014-Jun-28 16:33S 32°53' E 151°45'0 0.0
2014-Jun-28 15:33S 32°53' E 151°45'0 0.0
2014-Jun-28 14:33S 32°53' E 151°45'0 0.0
2014-Jun-28 13:33S 32°53' E 151°45'0 0.0
2014-Jun-28 12:33S 32°53' E 151°45'0 0.0
2014-Jun-28 11:33S 32°53' E 151°45'0 0.0
2014-Jun-28 10:30S 32°53' E 151°45'0 0.0
2014-Jun-28 09:30S 32°53' E 151°45'0 0.0
2014-Jun-28 08:27S 32°53' E 151°45'0 0.0
2014-Jun-28 07:33S 32°53' E 151°45'0 0.0
2014-Jun-28 06:33S 32°53' E 151°45'0 0.0
2014-Jun-28 05:33S 32°53' E 151°45'0 0.0
2014-Jun-28 04:30S 32°53' E 151°45'0 0.0
2014-Jun-28 03:33S 32°53' E 151°45'0 0.0
2014-Jun-28 02:33S 32°53' E 151°45'0 0.0
2014-Jun-28 01:33S 32°53' E 151°45'0 0.0
2014-Jun-28 00:33S 32°53' E 151°45'0 0.0
2014-Jun-27 23:30S 32°53' E 151°45'0 0.0
2014-Jun-27 22:33S 32°53' E 151°45'0 0.0
2014-Jun-27 21:33S 32°53' E 151°45'0 0.0
2014-Jun-27 20:33S 32°53' E 151°45'0 0.0
2014-Jun-27 19:33S 32°53' E 151°45'0 0.0
2014-Jun-27 18:30S 32°53' E 151°45'0 0.0
2014-Jun-27 17:33S 32°53' E 151°45'0 0.0
2014-Jun-27 16:33S 32°53' E 151°45'0 0.0
2014-Jun-27 15:33S 32°53' E 151°45'0 0.0
2014-Jun-27 14:30S 32°53' E 151°45'0 0.0
2014-Jun-27 13:30S 32°53' E 151°45'0 0.0
2014-Jun-27 12:33S 32°53' E 151°45'0 0.0
2014-Jun-27 11:30S 32°53' E 151°45'0 0.0
2014-Jun-27 10:33S 32°53' E 151°45'0 0.0
2014-Jun-27 09:33S 32°53' E 151°45'0 0.0
2014-Jun-27 08:33S 32°53' E 151°45'0 0.0
2014-Jun-27 07:30S 32°53' E 151°45'0 0.0
2014-Jun-27 06:33S 32°53' E 151°45'0 0.0
2014-Jun-27 05:33S 32°53' E 151°45'0 0.0
2014-Jun-27 04:30S 32°53' E 151°45'0 0.0
2014-Jun-27 03:30S 32°53' E 151°45'0 0.0
2014-Jun-27 02:30S 32°53' E 151°45'0 0.0
2014-Jun-27 01:33S 32°53' E 151°45'0 0.0
2014-Jun-27 00:33S 32°53' E 151°45'0 0.0
2014-Jun-26 23:30S 32°53' E 151°45'0 0.0
2014-Jun-26 22:33S 32°53' E 151°45'1 1.3
2014-Jun-26 21:34S 32°54' E 151°46'5 5.3
2014-Jun-26 20:34S 32°57' E 151°51'8 8.3
2014-Jun-26 19:33S 33°03' E 151°58'9 9.0
2014-Jun-26 18:33S 33°08' E 152°07'1110.6
2014-Jun-26 17:33S 33°14' E 152°17'1010.2
2014-Jun-26 16:33S 33°21' E 152°27'12 0.9
2014-Jun-26 03:28S 33°16' E 152°13'1 0.6
2014-Jun-26 02:11S 33°15' E 152°13'6 9.4
2014-Jun-26 01:34S 33°15' E 152°20'1212.3
2014-Jun-26 00:34S 33°15' E 152°35'  
2014-Jun-23 03:09S 27°57' E 154°04'1415.0
2014-Jun-23 02:14S 27°43' E 154°04'1314.7
2014-Jun-23 01:22S 27°30' E 154°04'1414.1
2014-Jun-23 00:23S 27°16' E 154°04'1914.3
2014-Jun-22 23:05S 26°58' E 154°05'2214.2
2014-Jun-22 21:31S 26°36' E 154°04'1514.4
2014-Jun-22 20:29S 26°21' E 154°03'  

Dump ship's entire track history